createdAt,value
2019-04-05T00:00:35.864Z,14.90
2019-04-05T00:03:05.810Z,14.53
2019-04-05T00:05:36.230Z,14.17
2019-04-05T00:08:06.170Z,12.07
2019-04-05T00:10:36.534Z,16.00
2019-04-05T00:13:06.773Z,13.53
2019-04-05T00:15:38.136Z,11.80
2019-04-05T00:18:08.529Z,16.00
2019-04-05T00:20:38.378Z,12.60
2019-04-05T00:23:08.712Z,15.23
2019-04-05T00:25:38.774Z,14.67
2019-04-05T00:28:08.620Z,14.50
2019-04-05T00:30:38.672Z,18.47
2019-04-05T00:33:08.470Z,16.73
2019-04-05T00:35:38.442Z,13.53
2019-04-05T00:38:08.286Z,13.97
2019-04-05T00:40:38.178Z,12.73
2019-04-05T00:43:08.236Z,14.37
2019-04-05T00:45:38.159Z,16.77
2019-04-05T00:48:08.044Z,13.73
2019-04-05T00:50:38.001Z,13.90
2019-04-05T00:53:07.943Z,14.97
2019-04-05T00:55:38.367Z,15.10
2019-04-05T00:58:08.592Z,14.17
2019-04-05T01:00:38.788Z,12.57
2019-04-05T01:03:08.608Z,17.37
2019-04-05T01:05:38.757Z,14.40
2019-04-05T01:08:08.627Z,13.67
2019-04-05T01:10:38.578Z,15.13
2019-04-05T01:13:08.389Z,18.77
2019-04-05T01:15:41.138Z,17.23
2019-04-05T01:18:10.259Z,18.70
2019-04-05T01:20:42.813Z,16.10
2019-04-05T01:23:12.987Z,16.23
2019-04-05T01:25:43.270Z,15.80
2019-04-05T01:28:13.266Z,15.80
2019-04-05T01:30:43.090Z,19.47
2019-04-05T01:33:13.268Z,15.10
2019-04-05T01:35:43.596Z,16.90
2019-04-05T01:38:14.157Z,15.70
2019-04-05T01:40:47.050Z,16.40
2019-04-05T01:43:17.700Z,15.47
2019-04-05T01:45:53.915Z,18.33
2019-04-05T01:48:20.167Z,15.33
2019-04-05T01:50:50.911Z,17.10
2019-04-05T01:53:21.080Z,13.07
2019-04-05T01:55:51.372Z,16.17
2019-04-05T01:58:21.175Z,17.50
2019-04-05T02:00:50.979Z,16.60
2019-04-05T02:03:21.054Z,19.97
2019-04-05T02:05:51.383Z,14.63
2019-04-05T02:08:21.611Z,14.83
2019-04-05T02:10:51.609Z,16.57
2019-04-05T02:13:21.664Z,17.17
2019-04-05T02:15:51.578Z,14.57
2019-04-05T02:18:21.382Z,17.80
2019-04-05T02:20:51.811Z,18.60
2019-04-05T02:23:21.943Z,16.73
2019-04-05T02:25:52.659Z,19.43
2019-04-05T02:28:25.383Z,15.97
2019-04-05T02:30:54.862Z,15.60
2019-04-05T02:33:25.643Z,17.80
2019-04-05T02:35:55.711Z,18.30
2019-04-05T02:38:25.519Z,16.30
2019-04-05T02:40:58.826Z,18.93
2019-04-05T02:43:32.380Z,20.03
2019-04-05T02:46:03.295Z,16.13
2019-04-05T02:48:36.369Z,17.20
2019-04-05T02:51:07.392Z,17.10
2019-04-05T02:53:38.955Z,16.90
2019-04-05T02:56:10.009Z,15.73
2019-04-05T02:58:40.827Z,18.23
2019-04-05T03:01:11.812Z,18.13
2019-04-05T03:03:42.411Z,22.03
2019-04-05T03:06:13.679Z,20.03
2019-04-05T03:08:44.193Z,18.37
2019-04-05T03:11:20.280Z,19.90
2019-04-05T03:13:54.650Z,21.90
2019-04-05T03:16:40.940Z,19.97
2019-04-05T03:19:26.097Z,18.93
2019-04-05T03:22:00.715Z,20.33
2019-04-05T03:24:33.192Z,20.97
2019-04-05T03:27:17.473Z,20.03
2019-04-05T03:29:47.483Z,19.00
2019-04-05T03:32:17.444Z,23.97
2019-04-05T03:34:47.936Z,20.80
2019-04-05T03:37:18.369Z,23.77
2019-04-05T03:39:48.995Z,20.97
2019-04-05T03:42:20.525Z,19.83
2019-04-05T03:44:50.529Z,21.33
2019-04-05T03:47:20.756Z,19.70
2019-04-05T03:49:51.151Z,19.20
2019-04-05T03:52:21.646Z,23.97
2019-04-05T03:54:52.045Z,21.13
2019-04-05T03:57:22.049Z,18.53
2019-04-05T03:59:52.346Z,22.40
2019-04-05T04:02:23.642Z,20.40
2019-04-05T04:04:54.951Z,19.73
2019-04-05T04:07:25.651Z,22.70
2019-04-05T04:09:55.456Z,22.23
2019-04-05T04:12:25.825Z,21.20
2019-04-05T04:14:57.693Z,24.27
2019-04-05T04:17:27.507Z,20.27
2019-04-05T04:19:58.142Z,23.00
2019-04-05T04:22:31.511Z,23.27
2019-04-05T04:25:01.591Z,22.17
2019-04-05T04:27:31.563Z,24.77
2019-04-05T04:30:02.026Z,22.30
2019-04-05T04:32:32.416Z,21.27
2019-04-05T04:35:06.072Z,24.60
2019-04-05T04:37:36.345Z,23.13
2019-04-05T04:40:07.497Z,22.87
2019-04-05T04:42:37.858Z,28.60
2019-04-05T04:45:12.607Z,25.90
2019-04-05T04:47:39.569Z,29.70
2019-04-05T04:50:12.285Z,27.77
2019-04-05T04:52:42.614Z,29.73
2019-04-05T04:55:12.635Z,25.50
2019-04-05T04:57:44.158Z,27.10
2019-04-05T05:00:15.343Z,30.27
2019-04-05T05:02:45.795Z,30.77
2019-04-05T05:05:16.937Z,27.60
2019-04-05T05:07:47.257Z,25.83
2019-04-05T05:10:18.387Z,26.87
2019-04-05T05:12:57.443Z,25.60
2019-04-05T05:15:27.562Z,26.10
2019-04-05T05:17:58.784Z,25.63
2019-04-05T05:20:29.405Z,29.73
2019-04-05T05:22:59.607Z,27.60
2019-04-05T05:25:29.555Z,26.17
2019-04-05T05:27:59.662Z,27.63
2019-04-05T05:30:30.146Z,28.83
2019-04-05T05:33:00.549Z,30.93
2019-04-05T05:35:30.521Z,31.53
2019-04-05T05:38:00.294Z,29.43
2019-04-05T05:40:35.082Z,32.50
2019-04-05T05:43:02.800Z,28.73
2019-04-05T05:45:32.900Z,34.53
2019-04-05T05:48:02.834Z,36.03
2019-04-05T05:50:32.640Z,29.13
2019-04-05T05:53:02.552Z,35.00
2019-04-05T05:55:32.363Z,36.03
2019-04-05T05:58:02.574Z,31.83
2019-04-05T06:00:32.784Z,36.07
2019-04-05T06:03:02.627Z,36.60
2019-04-05T06:05:33.046Z,35.37
2019-04-05T06:08:03.131Z,34.97
2019-04-05T06:10:32.982Z,36.40
2019-04-05T06:13:06.820Z,39.10
2019-04-05T06:15:37.406Z,34.23
2019-04-05T06:18:06.198Z,33.10
2019-04-05T06:20:36.342Z,29.80
2019-04-05T06:23:06.522Z,37.17
2019-04-05T06:25:36.484Z,38.57
2019-04-05T06:28:06.746Z,42.00
2019-04-05T06:30:36.546Z,38.73
2019-04-05T06:33:06.842Z,33.43
2019-04-05T06:35:37.055Z,35.13
2019-04-05T06:38:06.866Z,40.37
2019-04-05T06:40:40.930Z,37.77
2019-04-05T06:43:09.503Z,44.17
2019-04-05T06:45:40.389Z,36.43
2019-04-05T06:48:19.023Z,36.33
2019-04-05T06:50:41.722Z,36.93
2019-04-05T06:53:12.132Z,40.80
2019-04-05T06:55:45.481Z,36.80
2019-04-05T06:58:20.526Z,40.37
2019-04-05T07:00:57.284Z,40.83
2019-04-05T07:03:23.734Z,45.07
2019-04-05T07:05:53.765Z,38.63
2019-04-05T07:08:23.600Z,44.27
2019-04-05T07:10:54.844Z,35.67
2019-04-05T07:13:27.311Z,37.87
2019-04-05T07:15:56.523Z,38.40
2019-04-05T07:18:35.723Z,36.63
2019-04-05T07:20:58.792Z,32.77
2019-04-05T07:23:29.435Z,40.87
2019-04-05T07:26:00.335Z,38.43
2019-04-05T07:28:30.672Z,33.40
2019-04-05T07:31:00.472Z,38.43
2019-04-05T07:33:31.441Z,37.40
2019-04-05T07:36:03.479Z,37.80
2019-04-05T07:38:33.270Z,40.83
2019-04-05T07:41:03.366Z,37.13
2019-04-05T07:43:33.670Z,30.93
2019-04-05T07:46:03.807Z,37.30
2019-04-05T07:48:44.047Z,41.17
2019-04-05T07:51:05.990Z,29.17
2019-04-05T07:53:36.296Z,32.60
2019-04-05T07:56:06.185Z,37.57
2019-04-05T07:58:36.817Z,34.40
2019-04-05T08:01:07.329Z,35.40
2019-04-05T08:03:37.290Z,31.50
2019-04-05T08:06:07.535Z,33.50
2019-04-05T08:08:47.712Z,33.30
2019-04-05T08:11:18.540Z,36.57
2019-04-05T08:13:50.759Z,28.67
2019-04-05T08:16:21.126Z,31.93
2019-04-05T08:18:57.661Z,36.50
2019-04-05T08:21:22.347Z,26.23
2019-04-05T08:23:52.107Z,27.50
2019-04-05T08:26:22.496Z,26.70
2019-04-05T08:28:54.086Z,35.10
2019-04-05T08:31:24.989Z,28.77
2019-04-05T08:33:55.059Z,29.93
2019-04-05T08:36:25.602Z,23.30
2019-04-05T08:38:55.866Z,28.23
2019-04-05T08:41:25.638Z,28.60
2019-04-05T08:43:56.128Z,29.67
2019-04-05T08:46:25.898Z,30.40
2019-04-05T08:49:09.666Z,34.53
2019-04-05T08:51:29.148Z,32.40
2019-04-05T08:53:58.948Z,28.10
2019-04-05T08:56:29.314Z,33.63
2019-04-05T08:58:59.854Z,26.33
2019-04-05T09:01:29.895Z,27.70
2019-04-05T09:03:59.697Z,32.17
2019-04-05T09:06:29.938Z,30.67
2019-04-05T09:08:59.844Z,28.83
2019-04-05T09:11:29.674Z,31.50
2019-04-05T09:13:59.954Z,30.07
2019-04-05T09:16:30.083Z,30.43
2019-04-05T09:19:00.153Z,26.00
2019-04-05T09:21:30.363Z,32.33
2019-04-05T09:24:00.202Z,35.53
2019-04-05T09:26:30.794Z,38.60
2019-04-05T09:29:00.646Z,33.30
2019-04-05T09:31:30.835Z,26.33
2019-04-05T09:34:01.185Z,33.53
2019-04-05T09:36:30.980Z,32.57
2019-04-05T09:39:02.158Z,33.50
2019-04-05T09:41:32.224Z,30.13
2019-04-05T09:44:02.098Z,27.70
2019-04-05T09:46:31.915Z,48.03
2019-04-05T09:49:02.909Z,33.80
2019-04-05T09:51:33.092Z,31.23
2019-04-05T09:54:03.354Z,30.07
2019-04-05T09:56:33.642Z,30.43
2019-04-05T09:59:03.920Z,43.00
2019-04-05T10:01:34.165Z,31.03
2019-04-05T10:04:04.500Z,37.20
2019-04-05T10:06:34.319Z,34.10
2019-04-05T10:09:06.178Z,28.43
2019-04-05T10:11:36.315Z,25.70
2019-04-05T10:14:07.074Z,28.40
2019-04-05T10:16:36.953Z,27.87
2019-04-05T10:19:06.782Z,40.13
2019-04-05T10:21:37.347Z,30.10
2019-04-05T10:24:07.751Z,31.93
2019-04-05T10:26:37.523Z,38.43
2019-04-05T10:29:07.783Z,30.70
2019-04-05T10:31:39.758Z,26.90
2019-04-05T10:34:09.601Z,31.67
2019-04-05T10:36:39.376Z,22.53
2019-04-05T10:39:10.274Z,26.80
2019-04-05T10:41:43.758Z,21.83
2019-04-05T10:44:15.571Z,27.30
2019-04-05T10:46:45.832Z,26.90
2019-04-05T10:49:15.814Z,29.73
2019-04-05T10:51:47.441Z,26.43
2019-04-05T10:54:19.450Z,22.00
2019-04-05T10:56:49.705Z,42.43
2019-04-05T10:59:19.659Z,30.60
2019-04-05T11:01:49.474Z,20.53
2019-04-05T11:04:19.321Z,21.57
2019-04-05T11:06:50.458Z,32.27
2019-04-05T11:09:20.885Z,22.27
2019-04-05T11:11:51.077Z,26.87
2019-04-05T11:14:21.293Z,23.23
2019-04-05T11:16:58.192Z,22.63
2019-04-05T11:19:23.754Z,26.17
2019-04-05T11:21:53.591Z,24.20
2019-04-05T11:24:23.768Z,23.67
2019-04-05T11:26:53.610Z,24.50
2019-04-05T11:29:23.401Z,26.97
2019-04-05T11:31:57.431Z,24.00
2019-04-05T11:34:26.647Z,23.20
2019-04-05T11:36:56.746Z,23.93
2019-04-05T11:39:27.451Z,22.53
2019-04-05T11:41:59.387Z,26.90
2019-04-05T11:44:30.132Z,21.63
2019-04-05T11:47:00.811Z,25.47
2019-04-05T11:49:33.485Z,25.10
2019-04-05T11:52:03.475Z,23.50
2019-04-05T11:54:33.714Z,24.10
2019-04-05T11:57:04.105Z,27.73
2019-04-05T11:59:34.794Z,34.40
2019-04-05T12:02:20.474Z,22.07
2019-04-05T12:04:50.279Z,25.23
2019-04-05T12:07:26.260Z,26.97
2019-04-05T12:09:53.630Z,26.70
2019-04-05T12:12:25.605Z,22.60
2019-04-05T12:14:55.509Z,26.80
2019-04-05T12:17:27.443Z,23.43
2019-04-05T12:19:57.838Z,24.03
2019-04-05T12:22:28.466Z,30.20
2019-04-05T12:25:00.531Z,22.30
2019-04-05T12:27:30.620Z,24.23
2019-04-05T12:30:00.584Z,30.07
2019-04-05T12:32:34.491Z,22.70
2019-04-05T12:35:02.738Z,23.50
2019-04-05T12:37:32.668Z,26.17
2019-04-05T12:40:05.028Z,26.10
2019-04-05T12:42:34.028Z,25.90
2019-04-05T12:45:04.458Z,24.20
2019-04-05T12:47:35.234Z,26.77
2019-04-05T12:50:06.256Z,23.80
2019-04-05T12:52:36.495Z,28.40
2019-04-05T12:55:07.648Z,23.53
2019-04-05T12:57:37.953Z,28.50
2019-04-05T13:00:13.178Z,26.20
2019-04-05T13:02:42.928Z,25.70
2019-04-05T13:05:14.215Z,22.07
2019-04-05T13:07:43.990Z,27.47
2019-04-05T13:10:15.401Z,30.90
2019-04-05T13:12:45.672Z,27.30
2019-04-05T13:15:18.521Z,26.97
2019-04-05T13:17:48.766Z,31.07
2019-04-05T13:20:21.857Z,26.10
2019-04-05T13:22:51.906Z,27.83
2019-04-05T13:25:23.074Z,31.40
2019-04-05T13:27:53.740Z,30.53
2019-04-05T13:30:23.562Z,31.23
2019-04-05T13:32:53.575Z,37.33
2019-04-05T13:35:23.870Z,25.80
2019-04-05T13:37:53.653Z,32.07
2019-04-05T13:40:23.934Z,29.27
2019-04-05T13:42:54.507Z,26.47
2019-04-05T13:45:24.345Z,30.40
2019-04-05T13:47:54.272Z,30.87
2019-04-05T13:50:24.463Z,27.10
2019-04-05T13:52:54.923Z,24.13
2019-04-05T13:55:24.703Z,23.67
2019-04-05T13:57:54.940Z,26.20
2019-04-05T14:00:25.417Z,23.40
2019-04-05T14:02:56.019Z,22.30
2019-04-05T14:05:26.130Z,26.20
2019-04-05T14:08:09.788Z,25.47
2019-04-05T14:10:28.122Z,24.20
2019-04-05T14:12:58.235Z,24.17
2019-04-05T14:15:31.191Z,22.97
2019-04-05T14:17:59.886Z,24.10
2019-04-05T14:20:29.671Z,25.33
2019-04-05T14:22:59.507Z,23.97
2019-04-05T14:25:30.277Z,23.97
2019-04-05T14:28:02.495Z,23.27
2019-04-05T14:30:33.718Z,21.13
2019-04-05T14:33:03.823Z,22.57
2019-04-05T14:35:33.962Z,22.77
2019-04-05T14:38:04.683Z,23.87
2019-04-05T14:40:34.531Z,24.60
2019-04-05T14:43:04.847Z,21.70
2019-04-05T14:45:34.691Z,20.53
2019-04-05T14:48:05.355Z,24.67
2019-04-05T14:50:35.250Z,22.67
2019-04-05T14:53:05.904Z,23.60
2019-04-05T14:55:35.768Z,24.40
2019-04-05T14:58:06.249Z,24.90
2019-04-05T15:00:47.158Z,22.90
2019-04-05T15:03:25.848Z,24.90
2019-04-05T15:05:58.182Z,23.47
2019-04-05T15:08:28.655Z,24.40
2019-04-05T15:11:01.924Z,27.70
2019-04-05T15:13:31.755Z,35.67
2019-04-05T15:16:02.568Z,26.07
2019-04-05T15:18:33.281Z,23.50
2019-04-05T15:21:05.844Z,26.33
2019-04-05T15:23:35.333Z,29.67
2019-04-05T15:26:05.384Z,31.73
2019-04-05T15:28:35.205Z,31.70
2019-04-05T15:31:05.544Z,26.47
2019-04-05T15:33:35.416Z,32.10
2019-04-05T15:36:05.653Z,30.40
2019-04-05T15:38:36.214Z,29.13
2019-04-05T15:41:06.091Z,28.33
2019-04-05T15:43:36.563Z,28.17
2019-04-05T15:46:06.879Z,36.13
2019-04-05T15:48:37.483Z,32.97
2019-04-05T15:51:08.100Z,29.90
2019-04-05T15:53:38.382Z,30.73
2019-04-05T15:56:08.530Z,29.23
2019-04-05T15:58:38.651Z,27.27
2019-04-05T16:01:09.689Z,27.20
2019-04-05T16:03:39.686Z,29.40
2019-04-05T16:06:10.038Z,32.40
2019-04-05T16:08:39.959Z,34.60
2019-04-05T16:11:09.758Z,34.90
2019-04-05T16:13:40.026Z,29.33
2019-04-05T16:16:09.838Z,32.57
2019-04-05T16:18:40.050Z,33.40
2019-04-05T16:21:11.091Z,44.73
2019-04-05T16:23:41.567Z,37.43
2019-04-05T16:26:11.943Z,38.57
2019-04-05T16:28:41.871Z,36.87
2019-04-05T16:31:12.098Z,34.87
2019-04-05T16:33:41.956Z,40.87
2019-04-05T16:36:11.762Z,35.37
2019-04-05T16:38:42.226Z,34.93
2019-04-05T16:41:12.511Z,36.30
2019-04-05T16:43:42.689Z,35.17
2019-04-05T16:46:13.247Z,32.80
2019-04-05T16:48:43.374Z,34.83
2019-04-05T16:51:13.633Z,34.37
2019-04-05T16:54:02.250Z,33.03
2019-04-05T16:56:32.920Z,37.93
2019-04-05T16:59:03.227Z,36.20
2019-04-05T17:01:33.169Z,36.93
2019-04-05T17:04:03.047Z,38.57
2019-04-05T17:06:33.386Z,40.27
2019-04-05T17:09:05.002Z,31.43
2019-04-05T17:11:34.826Z,34.40
2019-04-05T17:14:05.919Z,34.33
2019-04-05T17:16:35.767Z,38.40
2019-04-05T17:19:06.071Z,34.90
2019-04-05T17:21:36.303Z,35.83
2019-04-05T17:24:06.299Z,33.87
2019-04-05T17:26:36.444Z,37.97
2019-04-05T17:29:06.435Z,28.10
2019-04-05T17:31:36.231Z,32.73
2019-04-05T17:34:06.078Z,32.93
2019-04-05T17:36:36.850Z,39.90
2019-04-05T17:39:08.103Z,32.03
2019-04-05T17:41:38.267Z,32.30
2019-04-05T17:44:08.616Z,36.20
2019-04-05T17:46:38.478Z,34.30
2019-04-05T17:49:09.282Z,39.87
2019-04-05T17:51:39.638Z,41.50
2019-04-05T17:54:09.803Z,35.80
2019-04-05T17:56:40.718Z,37.60
2019-04-05T17:59:11.604Z,37.73
2019-04-05T18:01:41.497Z,38.80
2019-04-05T18:04:12.250Z,38.73
2019-04-05T18:06:42.056Z,40.93
2019-04-05T18:09:11.848Z,36.03
2019-04-05T18:11:42.754Z,31.00
2019-04-05T18:14:12.497Z,39.97
2019-04-05T18:16:43.198Z,32.30
2019-04-05T18:19:13.070Z,37.57
2019-04-05T18:21:43.279Z,34.30
2019-04-05T18:24:13.450Z,39.57
2019-04-05T18:26:43.747Z,39.33
2019-04-05T18:29:13.922Z,40.50
2019-04-05T18:31:43.898Z,44.20
2019-04-05T18:34:13.689Z,36.60
2019-04-05T18:36:43.731Z,34.10
2019-04-05T18:39:14.063Z,42.53
2019-04-05T18:41:44.343Z,44.50
2019-04-05T18:44:18.236Z,41.83
2019-04-05T18:46:50.724Z,47.43
2019-04-05T18:49:35.691Z,37.03
2019-04-05T18:52:14.909Z,41.20
2019-04-05T18:54:45.094Z,43.63
2019-04-05T18:57:15.723Z,41.93
2019-04-05T19:00:03.593Z,52.50
2019-04-05T19:02:38.888Z,43.70
2019-04-05T19:05:42.386Z,40.63
2019-04-05T19:08:22.118Z,40.10
2019-04-05T19:10:56.196Z,44.40
2019-04-05T19:13:29.794Z,41.57
2019-04-05T19:16:00.980Z,39.97
2019-04-05T19:18:31.776Z,46.93
2019-04-05T19:21:05.963Z,43.73
2019-04-05T19:23:51.192Z,45.57
2019-04-05T19:26:29.688Z,42.03
2019-04-05T19:29:01.246Z,41.87
2019-04-05T19:49:46.204Z,40.70
2019-04-05T19:52:17.385Z,45.20
2019-04-05T19:54:48.547Z,41.10
2019-04-05T19:57:19.839Z,42.10
2019-04-05T19:59:51.598Z,45.93
2019-04-05T20:02:21.446Z,46.20
2019-04-05T20:04:51.542Z,44.60
2019-04-05T20:07:23.606Z,43.07
2019-04-05T20:09:54.400Z,39.20
2019-04-05T20:12:24.680Z,43.00
2019-04-05T20:14:56.027Z,40.67
2019-04-05T20:17:28.616Z,47.17
2019-04-05T20:19:59.377Z,41.07
2019-04-05T20:22:30.254Z,47.90
2019-04-05T20:25:02.033Z,49.17
2019-04-05T20:27:34.194Z,52.60
2019-04-05T20:30:05.664Z,40.10
2019-04-05T20:32:36.951Z,44.77
2019-04-05T20:35:07.429Z,41.87
2019-04-05T20:37:40.054Z,49.90
2019-04-05T20:40:11.023Z,46.50
2019-04-05T20:42:42.843Z,40.80
2019-04-05T20:45:13.587Z,41.50
2019-04-05T20:47:44.391Z,48.77
2019-04-05T20:50:15.874Z,44.03
2019-04-05T20:52:46.041Z,45.00
2019-04-05T20:55:17.252Z,42.87
2019-04-05T20:57:48.272Z,47.33
2019-04-05T21:00:20.594Z,42.40
2019-04-05T21:02:56.176Z,50.53
2019-04-05T21:05:28.593Z,44.73
2019-04-05T21:08:00.266Z,42.10
2019-04-05T21:10:30.496Z,45.77
2019-04-05T21:13:02.153Z,45.33
2019-04-05T21:15:32.584Z,51.23
2019-04-05T21:18:02.839Z,40.70
2019-04-05T21:20:33.057Z,41.90
2019-04-05T21:23:04.186Z,45.37
2019-04-05T21:25:34.021Z,38.90
2019-04-05T21:28:03.934Z,43.00
2019-04-05T21:30:34.139Z,46.57
2019-04-05T21:33:04.571Z,49.07
2019-04-05T21:35:34.449Z,43.50
2019-04-05T21:38:04.455Z,41.03
2019-04-05T21:40:34.270Z,40.17
2019-04-05T21:43:04.674Z,51.93
2019-04-05T21:45:34.892Z,53.13
2019-04-05T21:48:05.776Z,54.33
2019-04-05T21:50:35.538Z,46.47
2019-04-05T21:53:05.338Z,45.80
2019-04-05T21:55:35.490Z,49.33
2019-04-05T21:58:05.322Z,44.93
2019-04-05T22:00:48.719Z,55.93
2019-04-05T22:03:18.844Z,47.50
2019-04-05T22:05:48.594Z,48.80
2019-04-05T22:08:18.994Z,41.20
2019-04-05T22:10:49.207Z,46.10
2019-04-05T22:13:19.961Z,38.47
2019-04-05T22:15:50.238Z,46.63
2019-04-05T22:18:20.370Z,45.93
2019-04-05T22:20:51.161Z,38.40
2019-04-05T22:23:20.983Z,42.67
2019-04-05T22:25:51.070Z,44.20
2019-04-05T22:28:21.286Z,36.37
2019-04-05T22:30:51.096Z,42.63
2019-04-05T22:33:20.875Z,46.70
2019-04-05T22:35:50.703Z,44.00
2019-04-05T22:38:20.963Z,42.03
2019-04-05T22:40:50.790Z,42.83
2019-04-05T22:43:20.971Z,42.03
2019-04-05T22:45:51.182Z,50.17
2019-04-05T22:48:21.826Z,45.67
2019-04-05T22:50:51.929Z,43.50
2019-04-05T22:53:22.647Z,43.47
2019-04-05T22:55:52.525Z,42.20
2019-04-05T22:58:23.559Z,41.40
2019-04-05T23:00:53.674Z,43.63
2019-04-05T23:03:24.599Z,49.00
2019-04-05T23:05:54.402Z,45.03
2019-04-05T23:08:24.214Z,44.80
2019-04-05T23:10:54.130Z,46.67
2019-04-05T23:13:23.948Z,42.60
2019-04-05T23:15:54.286Z,46.83
2019-04-05T23:18:24.556Z,38.70
2019-04-05T23:20:54.317Z,44.07
2019-04-05T23:23:25.016Z,37.83
2019-04-05T23:25:55.291Z,38.67
2019-04-05T23:28:25.785Z,39.57
2019-04-05T23:30:55.587Z,41.80
2019-04-05T23:33:25.358Z,47.70
2019-04-05T23:35:55.271Z,49.00
2019-04-05T23:38:25.974Z,60.57
2019-04-05T23:40:55.833Z,39.77
2019-04-05T23:43:26.108Z,42.93
2019-04-05T23:45:56.292Z,46.53
2019-04-05T23:48:26.516Z,40.90
2019-04-05T23:50:56.285Z,43.67
2019-04-05T23:53:27.290Z,36.70
2019-04-05T23:55:57.175Z,39.53
2019-04-05T23:58:27.817Z,44.40
